sensor_id;sensor_type;location;lat;lon;timestamp;P1;durP1;ratioP1;P2;durP2;ratioP2
5225;SDS011;2632;51.666;7.146;2023-09-18T00:01:02;10.87;;;8.20;;
5225;SDS011;2632;51.666;7.146;2023-09-18T00:03:28;13.03;;;8.20;;
5225;SDS011;2632;51.666;7.146;2023-09-18T00:05:55;12.40;;;8.00;;
5225;SDS011;2632;51.666;7.146;2023-09-18T00:08:22;11.03;;;8.30;;
5225;SDS011;2632;51.666;7.146;2023-09-18T00:10:49;12.77;;;7.90;;
5225;SDS011;2632;51.666;7.146;2023-09-18T00:13:18;13.57;;;8.60;;
5225;SDS011;2632;51.666;7.146;2023-09-18T00:15:45;12.20;;;7.73;;
5225;SDS011;2632;51.666;7.146;2023-09-18T00:18:15;12.80;;;8.23;;
5225;SDS011;2632;51.666;7.146;2023-09-18T00:20:42;14.97;;;8.57;;
5225;SDS011;2632;51.666;7.146;2023-09-18T00:23:09;10.70;;;7.80;;
5225;SDS011;2632;51.666;7.146;2023-09-18T00:25:36;10.70;;;7.93;;
5225;SDS011;2632;51.666;7.146;2023-09-18T00:28:03;12.23;;;7.43;;
5225;SDS011;2632;51.666;7.146;2023-09-18T00:30:30;11.17;;;7.80;;
5225;SDS011;2632;51.666;7.146;2023-09-18T00:32:57;13.70;;;7.97;;
5225;SDS011;2632;51.666;7.146;2023-09-18T00:35:24;14.03;;;7.23;;
5225;SDS011;2632;51.666;7.146;2023-09-18T00:37:50;12.30;;;8.10;;
5225;SDS011;2632;51.666;7.146;2023-09-18T00:40:19;10.80;;;7.43;;
5225;SDS011;2632;51.666;7.146;2023-09-18T00:42:46;12.33;;;8.37;;
5225;SDS011;2632;51.666;7.146;2023-09-18T00:45:13;18.83;;;8.10;;
5225;SDS011;2632;51.666;7.146;2023-09-18T00:47:40;11.93;;;7.50;;
5225;SDS011;2632;51.666;7.146;2023-09-18T00:50:07;10.73;;;7.53;;
5225;SDS011;2632;51.666;7.146;2023-09-18T00:52:38;14.10;;;7.50;;
5225;SDS011;2632;51.666;7.146;2023-09-18T00:55:05;15.27;;;7.87;;
5225;SDS011;2632;51.666;7.146;2023-09-18T00:57:33;9.70;;;7.90;;
5225;SDS011;2632;51.666;7.146;2023-09-18T01:00:01;13.97;;;8.37;;
5225;SDS011;2632;51.666;7.146;2023-09-18T01:02:30;12.53;;;8.10;;
5225;SDS011;2632;51.666;7.146;2023-09-18T01:04:57;13.33;;;8.33;;
5225;SDS011;2632;51.666;7.146;2023-09-18T01:07:24;13.23;;;9.10;;
5225;SDS011;2632;51.666;7.146;2023-09-18T01:09:55;14.63;;;8.07;;
5225;SDS011;2632;51.666;7.146;2023-09-18T01:12:23;14.97;;;8.33;;
5225;SDS011;2632;51.666;7.146;2023-09-18T01:15:06;13.17;;;7.90;;
5225;SDS011;2632;51.666;7.146;2023-09-18T01:17:38;12.70;;;8.10;;
5225;SDS011;2632;51.666;7.146;2023-09-18T01:20:09;18.00;;;8.50;;
5225;SDS011;2632;51.666;7.146;2023-09-18T01:22:37;14.20;;;9.73;;
5225;SDS011;2632;51.666;7.146;2023-09-18T01:25:04;13.90;;;8.43;;
5225;SDS011;2632;51.666;7.146;2023-09-18T01:27:32;12.20;;;7.70;;
5225;SDS011;2632;51.666;7.146;2023-09-18T01:29:59;12.63;;;7.90;;
5225;SDS011;2632;51.666;7.146;2023-09-18T01:32:26;12.27;;;7.60;;
5225;SDS011;2632;51.666;7.146;2023-09-18T01:34:57;12.07;;;8.10;;
5225;SDS011;2632;51.666;7.146;2023-09-18T01:37:27;13.20;;;8.10;;
5225;SDS011;2632;51.666;7.146;2023-09-18T01:39:55;13.27;;;7.97;;
5225;SDS011;2632;51.666;7.146;2023-09-18T01:42:26;10.97;;;7.50;;
5225;SDS011;2632;51.666;7.146;2023-09-18T01:44:54;12.97;;;8.73;;
5225;SDS011;2632;51.666;7.146;2023-09-18T01:47:21;12.87;;;7.63;;
5225;SDS011;2632;51.666;7.146;2023-09-18T01:49:53;10.77;;;8.30;;
5225;SDS011;2632;51.666;7.146;2023-09-18T01:52:20;12.40;;;7.43;;
5225;SDS011;2632;51.666;7.146;2023-09-18T01:54:46;17.00;;;7.53;;
5225;SDS011;2632;51.666;7.146;2023-09-18T01:57:14;16.27;;;7.40;;
5225;SDS011;2632;51.666;7.146;2023-09-18T01:59:40;12.50;;;7.77;;
5225;SDS011;2632;51.666;7.146;2023-09-18T02:02:08;12.20;;;7.20;;
5225;SDS011;2632;51.666;7.146;2023-09-18T02:04:37;14.73;;;8.20;;
5225;SDS011;2632;51.666;7.146;2023-09-18T02:07:24;10.30;;;7.30;;
5225;SDS011;2632;51.666;7.146;2023-09-18T02:09:51;13.40;;;7.13;;
5225;SDS011;2632;51.666;7.146;2023-09-18T02:12:18;11.03;;;7.20;;
5225;SDS011;2632;51.666;7.146;2023-09-18T02:14:46;9.00;;;6.80;;
5225;SDS011;2632;51.666;7.146;2023-09-18T02:17:12;12.60;;;7.67;;
5225;SDS011;2632;51.666;7.146;2023-09-18T02:19:39;11.27;;;7.17;;
5225;SDS011;2632;51.666;7.146;2023-09-18T02:22:08;11.63;;;6.80;;
5225;SDS011;2632;51.666;7.146;2023-09-18T02:24:35;12.13;;;6.37;;
5225;SDS011;2632;51.666;7.146;2023-09-18T02:27:05;10.23;;;6.90;;
5225;SDS011;2632;51.666;7.146;2023-09-18T02:29:32;10.47;;;7.10;;
5225;SDS011;2632;51.666;7.146;2023-09-18T02:31:59;14.00;;;7.67;;
5225;SDS011;2632;51.666;7.146;2023-09-18T02:34:26;11.83;;;6.80;;
5225;SDS011;2632;51.666;7.146;2023-09-18T02:36:52;11.80;;;6.30;;
5225;SDS011;2632;51.666;7.146;2023-09-18T02:39:19;10.03;;;7.20;;
5225;SDS011;2632;51.666;7.146;2023-09-18T02:41:45;12.60;;;6.50;;
5225;SDS011;2632;51.666;7.146;2023-09-18T02:44:12;10.63;;;7.17;;
5225;SDS011;2632;51.666;7.146;2023-09-18T02:46:39;11.27;;;7.07;;
5225;SDS011;2632;51.666;7.146;2023-09-18T02:49:08;9.93;;;6.83;;
5225;SDS011;2632;51.666;7.146;2023-09-18T02:51:34;11.83;;;7.57;;
5225;SDS011;2632;51.666;7.146;2023-09-18T02:54:01;11.17;;;6.43;;
5225;SDS011;2632;51.666;7.146;2023-09-18T02:56:28;9.57;;;6.37;;
5225;SDS011;2632;51.666;7.146;2023-09-18T02:58:55;10.33;;;6.90;;
5225;SDS011;2632;51.666;7.146;2023-09-18T03:01:21;13.43;;;6.53;;
5225;SDS011;2632;51.666;7.146;2023-09-18T03:03:48;10.57;;;6.50;;
5225;SDS011;2632;51.666;7.146;2023-09-18T03:06:15;8.07;;;6.10;;
5225;SDS011;2632;51.666;7.146;2023-09-18T03:08:42;13.30;;;7.20;;
5225;SDS011;2632;51.666;7.146;2023-09-18T03:11:12;10.77;;;7.17;;
5225;SDS011;2632;51.666;7.146;2023-09-18T03:13:44;13.13;;;6.40;;
5225;SDS011;2632;51.666;7.146;2023-09-18T03:16:12;10.40;;;6.80;;
5225;SDS011;2632;51.666;7.146;2023-09-18T03:18:39;11.10;;;6.70;;
5225;SDS011;2632;51.666;7.146;2023-09-18T03:21:06;9.67;;;6.80;;
5225;SDS011;2632;51.666;7.146;2023-09-18T03:23:33;10.87;;;6.67;;
5225;SDS011;2632;51.666;7.146;2023-09-18T03:25:59;11.77;;;7.20;;
5225;SDS011;2632;51.666;7.146;2023-09-18T03:28:26;10.10;;;6.30;;
5225;SDS011;2632;51.666;7.146;2023-09-18T03:30:53;12.40;;;6.57;;
5225;SDS011;2632;51.666;7.146;2023-09-18T03:33:19;7.93;;;6.57;;
5225;SDS011;2632;51.666;7.146;2023-09-18T03:35:50;10.40;;;7.13;;
5225;SDS011;2632;51.666;7.146;2023-09-18T03:38:17;14.80;;;7.33;;
5225;SDS011;2632;51.666;7.146;2023-09-18T03:40:44;10.40;;;6.83;;
5225;SDS011;2632;51.666;7.146;2023-09-18T03:43:11;7.83;;;6.07;;
5225;SDS011;2632;51.666;7.146;2023-09-18T03:45:39;12.93;;;7.00;;
5225;SDS011;2632;51.666;7.146;2023-09-18T03:48:09;12.37;;;7.07;;
5225;SDS011;2632;51.666;7.146;2023-09-18T03:50:36;10.80;;;7.13;;
5225;SDS011;2632;51.666;7.146;2023-09-18T03:53:04;9.83;;;6.50;;
5225;SDS011;2632;51.666;7.146;2023-09-18T03:55:31;11.97;;;6.73;;
5225;SDS011;2632;51.666;7.146;2023-09-18T03:57:58;8.90;;;6.30;;
5225;SDS011;2632;51.666;7.146;2023-09-18T04:00:25;9.47;;;6.80;;
5225;SDS011;2632;51.666;7.146;2023-09-18T04:02:52;14.03;;;6.67;;
5225;SDS011;2632;51.666;7.146;2023-09-18T04:05:19;10.23;;;6.60;;
5225;SDS011;2632;51.666;7.146;2023-09-18T04:07:45;11.20;;;7.07;;
5225;SDS011;2632;51.666;7.146;2023-09-18T04:10:13;12.87;;;6.90;;
5225;SDS011;2632;51.666;7.146;2023-09-18T04:12:50;14.77;;;6.50;;
5225;SDS011;2632;51.666;7.146;2023-09-18T04:15:17;14.07;;;6.53;;
5225;SDS011;2632;51.666;7.146;2023-09-18T04:17:47;9.87;;;6.33;;
5225;SDS011;2632;51.666;7.146;2023-09-18T04:20:14;8.60;;;5.60;;
5225;SDS011;2632;51.666;7.146;2023-09-18T04:22:45;10.93;;;6.13;;
5225;SDS011;2632;51.666;7.146;2023-09-18T04:25:16;17.73;;;5.20;;
5225;SDS011;2632;51.666;7.146;2023-09-18T04:27:45;8.33;;;4.97;;
5225;SDS011;2632;51.666;7.146;2023-09-18T04:30:11;13.43;;;5.77;;
5225;SDS011;2632;51.666;7.146;2023-09-18T04:32:40;10.40;;;5.40;;
5225;SDS011;2632;51.666;7.146;2023-09-18T04:35:07;7.80;;;4.57;;
5225;SDS011;2632;51.666;7.146;2023-09-18T04:37:35;9.60;;;4.43;;
5225;SDS011;2632;51.666;7.146;2023-09-18T04:40:04;9.17;;;4.97;;
5225;SDS011;2632;51.666;7.146;2023-09-18T04:42:37;8.67;;;5.10;;
5225;SDS011;2632;51.666;7.146;2023-09-18T04:45:05;13.00;;;4.53;;
5225;SDS011;2632;51.666;7.146;2023-09-18T04:47:33;10.60;;;4.90;;
5225;SDS011;2632;51.666;7.146;2023-09-18T04:49:59;11.27;;;5.00;;
5225;SDS011;2632;51.666;7.146;2023-09-18T04:52:26;7.80;;;4.83;;
5225;SDS011;2632;51.666;7.146;2023-09-18T04:54:53;9.67;;;4.90;;
5225;SDS011;2632;51.666;7.146;2023-09-18T04:57:20;7.10;;;4.57;;
5225;SDS011;2632;51.666;7.146;2023-09-18T04:59:48;10.00;;;4.80;;
5225;SDS011;2632;51.666;7.146;2023-09-18T05:02:39;14.80;;;4.10;;
5225;SDS011;2632;51.666;7.146;2023-09-18T05:05:07;9.63;;;4.20;;
5225;SDS011;2632;51.666;7.146;2023-09-18T05:07:35;8.33;;;4.00;;
5225;SDS011;2632;51.666;7.146;2023-09-18T05:10:01;9.00;;;4.70;;
5225;SDS011;2632;51.666;7.146;2023-09-18T05:12:30;10.90;;;4.77;;
5225;SDS011;2632;51.666;7.146;2023-09-18T05:14:58;13.97;;;4.80;;
5225;SDS011;2632;51.666;7.146;2023-09-18T05:17:39;13.20;;;3.97;;
5225;SDS011;2632;51.666;7.146;2023-09-18T05:20:10;5.47;;;3.77;;
5225;SDS011;2632;51.666;7.146;2023-09-18T05:22:42;10.57;;;4.33;;
5225;SDS011;2632;51.666;7.146;2023-09-18T05:25:09;9.60;;;3.97;;
5225;SDS011;2632;51.666;7.146;2023-09-18T05:27:37;8.80;;;3.70;;
5225;SDS011;2632;51.666;7.146;2023-09-18T05:30:18;7.77;;;3.73;;
5225;SDS011;2632;51.666;7.146;2023-09-18T05:32:47;9.70;;;3.90;;
5225;SDS011;2632;51.666;7.146;2023-09-18T05:35:14;4.83;;;3.87;;
5225;SDS011;2632;51.666;7.146;2023-09-18T05:37:41;8.27;;;4.07;;
5225;SDS011;2632;51.666;7.146;2023-09-18T05:40:10;9.20;;;4.50;;
5225;SDS011;2632;51.666;7.146;2023-09-18T05:42:39;8.53;;;3.70;;
5225;SDS011;2632;51.666;7.146;2023-09-18T05:45:09;11.50;;;4.50;;
5225;SDS011;2632;51.666;7.146;2023-09-18T05:47:37;12.47;;;4.30;;
5225;SDS011;2632;51.666;7.146;2023-09-18T05:50:08;6.07;;;3.83;;
5225;SDS011;2632;51.666;7.146;2023-09-18T05:52:36;6.37;;;3.87;;
5225;SDS011;2632;51.666;7.146;2023-09-18T05:55:02;10.33;;;3.83;;
5225;SDS011;2632;51.666;7.146;2023-09-18T05:57:31;9.73;;;3.67;;
5225;SDS011;2632;51.666;7.146;2023-09-18T05:59:58;7.10;;;3.53;;
5225;SDS011;2632;51.666;7.146;2023-09-18T06:02:24;8.97;;;4.17;;
5225;SDS011;2632;51.666;7.146;2023-09-18T06:04:55;8.13;;;4.20;;
5225;SDS011;2632;51.666;7.146;2023-09-18T06:07:26;8.00;;;3.70;;
5225;SDS011;2632;51.666;7.146;2023-09-18T06:09:53;8.60;;;4.10;;
5225;SDS011;2632;51.666;7.146;2023-09-18T06:12:20;8.00;;;3.87;;
5225;SDS011;2632;51.666;7.146;2023-09-18T06:14:47;11.27;;;3.80;;
5225;SDS011;2632;51.666;7.146;2023-09-18T06:17:14;9.90;;;4.20;;
5225;SDS011;2632;51.666;7.146;2023-09-18T06:19:42;8.40;;;3.70;;
5225;SDS011;2632;51.666;7.146;2023-09-18T06:22:09;12.70;;;4.10;;
5225;SDS011;2632;51.666;7.146;2023-09-18T06:24:36;10.40;;;3.80;;
5225;SDS011;2632;51.666;7.146;2023-09-18T06:27:03;8.47;;;4.10;;
5225;SDS011;2632;51.666;7.146;2023-09-18T06:29:33;6.30;;;3.57;;
5225;SDS011;2632;51.666;7.146;2023-09-18T06:32:00;9.73;;;4.37;;
5225;SDS011;2632;51.666;7.146;2023-09-18T06:34:27;10.97;;;3.97;;
5225;SDS011;2632;51.666;7.146;2023-09-18T06:36:57;12.87;;;4.03;;
5225;SDS011;2632;51.666;7.146;2023-09-18T06:39:23;10.87;;;3.60;;
5225;SDS011;2632;51.666;7.146;2023-09-18T06:41:52;7.40;;;3.73;;
5225;SDS011;2632;51.666;7.146;2023-09-18T06:44:19;9.60;;;3.90;;
5225;SDS011;2632;51.666;7.146;2023-09-18T06:46:47;9.77;;;3.77;;
5225;SDS011;2632;51.666;7.146;2023-09-18T06:49:14;8.33;;;3.60;;
5225;SDS011;2632;51.666;7.146;2023-09-18T06:51:41;10.40;;;4.10;;
5225;SDS011;2632;51.666;7.146;2023-09-18T06:54:09;9.90;;;3.50;;
5225;SDS011;2632;51.666;7.146;2023-09-18T06:56:36;8.40;;;3.53;;
5225;SDS011;2632;51.666;7.146;2023-09-18T06:59:03;9.63;;;4.20;;
5225;SDS011;2632;51.666;7.146;2023-09-18T07:01:30;6.70;;;3.60;;
5225;SDS011;2632;51.666;7.146;2023-09-18T07:03:58;7.27;;;3.77;;
5225;SDS011;2632;51.666;7.146;2023-09-18T07:06:26;8.00;;;3.50;;
5225;SDS011;2632;51.666;7.146;2023-09-18T07:08:53;8.70;;;3.63;;
5225;SDS011;2632;51.666;7.146;2023-09-18T07:11:20;10.60;;;3.60;;
5225;SDS011;2632;51.666;7.146;2023-09-18T07:13:50;8.00;;;3.37;;
5225;SDS011;2632;51.666;7.146;2023-09-18T07:16:17;6.60;;;3.07;;
5225;SDS011;2632;51.666;7.146;2023-09-18T07:18:44;6.83;;;3.07;;
5225;SDS011;2632;51.666;7.146;2023-09-18T07:21:10;7.27;;;4.40;;
5225;SDS011;2632;51.666;7.146;2023-09-18T07:23:39;8.97;;;2.90;;
5225;SDS011;2632;51.666;7.146;2023-09-18T07:26:06;7.57;;;3.07;;
5225;SDS011;2632;51.666;7.146;2023-09-18T07:28:33;11.30;;;3.30;;
5225;SDS011;2632;51.666;7.146;2023-09-18T07:31:06;9.03;;;3.17;;
5225;SDS011;2632;51.666;7.146;2023-09-18T07:33:34;9.23;;;2.90;;
5225;SDS011;2632;51.666;7.146;2023-09-18T07:36:01;9.20;;;2.93;;
5225;SDS011;2632;51.666;7.146;2023-09-18T07:38:29;7.93;;;3.07;;
5225;SDS011;2632;51.666;7.146;2023-09-18T07:40:57;6.20;;;2.80;;
5225;SDS011;2632;51.666;7.146;2023-09-18T07:43:24;6.47;;;3.10;;
5225;SDS011;2632;51.666;7.146;2023-09-18T07:45:52;5.37;;;2.53;;
5225;SDS011;2632;51.666;7.146;2023-09-18T07:48:19;8.70;;;2.67;;
5225;SDS011;2632;51.666;7.146;2023-09-18T07:50:48;8.10;;;3.20;;
5225;SDS011;2632;51.666;7.146;2023-09-18T07:53:16;3.03;;;2.20;;
5225;SDS011;2632;51.666;7.146;2023-09-18T07:55:43;10.80;;;2.87;;
5225;SDS011;2632;51.666;7.146;2023-09-18T07:58:09;10.07;;;2.40;;
5225;SDS011;2632;51.666;7.146;2023-09-18T08:00:37;8.83;;;2.70;;
5225;SDS011;2632;51.666;7.146;2023-09-18T08:03:05;5.80;;;3.10;;
5225;SDS011;2632;51.666;7.146;2023-09-18T08:05:32;5.00;;;2.87;;
5225;SDS011;2632;51.666;7.146;2023-09-18T08:07:59;5.00;;;1.90;;
5225;SDS011;2632;51.666;7.146;2023-09-18T08:10:26;6.57;;;2.63;;
5225;SDS011;2632;51.666;7.146;2023-09-18T08:12:53;10.13;;;2.43;;
5225;SDS011;2632;51.666;7.146;2023-09-18T08:15:20;4.60;;;2.10;;
5225;SDS011;2632;51.666;7.146;2023-09-18T08:17:47;3.83;;;2.07;;
5225;SDS011;2632;51.666;7.146;2023-09-18T08:20:15;3.50;;;1.97;;
5225;SDS011;2632;51.666;7.146;2023-09-18T08:22:43;8.27;;;2.70;;
5225;SDS011;2632;51.666;7.146;2023-09-18T08:25:11;6.57;;;2.20;;
5225;SDS011;2632;51.666;7.146;2023-09-18T08:27:38;2.70;;;1.87;;
5225;SDS011;2632;51.666;7.146;2023-09-18T08:30:10;7.10;;;2.40;;
5225;SDS011;2632;51.666;7.146;2023-09-18T08:32:38;7.77;;;2.20;;
5225;SDS011;2632;51.666;7.146;2023-09-18T08:35:06;3.40;;;2.03;;
5225;SDS011;2632;51.666;7.146;2023-09-18T08:37:34;5.87;;;2.27;;
5225;SDS011;2632;51.666;7.146;2023-09-18T08:40:01;6.37;;;2.07;;
5225;SDS011;2632;51.666;7.146;2023-09-18T08:42:38;6.43;;;2.20;;
5225;SDS011;2632;51.666;7.146;2023-09-18T08:45:08;9.07;;;2.53;;
5225;SDS011;2632;51.666;7.146;2023-09-18T08:47:40;7.87;;;3.30;;
5225;SDS011;2632;51.666;7.146;2023-09-18T08:50:10;5.90;;;2.10;;
5225;SDS011;2632;51.666;7.146;2023-09-18T08:52:38;5.23;;;2.20;;
5225;SDS011;2632;51.666;7.146;2023-09-18T08:55:06;4.37;;;1.80;;
5225;SDS011;2632;51.666;7.146;2023-09-18T08:57:36;5.50;;;2.30;;
5225;SDS011;2632;51.666;7.146;2023-09-18T09:00:04;3.40;;;2.00;;
5225;SDS011;2632;51.666;7.146;2023-09-18T09:02:34;4.43;;;2.37;;
5225;SDS011;2632;51.666;7.146;2023-09-18T09:05:01;4.80;;;2.13;;
5225;SDS011;2632;51.666;7.146;2023-09-18T09:07:29;2.30;;;1.90;;
5225;SDS011;2632;51.666;7.146;2023-09-18T09:09:57;3.10;;;2.10;;
5225;SDS011;2632;51.666;7.146;2023-09-18T09:15:16;1.90;;;1.70;;
5225;SDS011;2632;51.666;7.146;2023-09-18T09:17:43;9.30;;;2.37;;
5225;SDS011;2632;51.666;7.146;2023-09-18T09:20:11;4.93;;;2.13;;
5225;SDS011;2632;51.666;7.146;2023-09-18T09:22:39;2.63;;;1.90;;
5225;SDS011;2632;51.666;7.146;2023-09-18T09:25:21;5.20;;;1.80;;
5225;SDS011;2632;51.666;7.146;2023-09-18T09:27:52;2.43;;;2.23;;
5225;SDS011;2632;51.666;7.146;2023-09-18T09:30:21;2.60;;;2.00;;
5225;SDS011;2632;51.666;7.146;2023-09-18T09:32:53;2.27;;;1.87;;
5225;SDS011;2632;51.666;7.146;2023-09-18T09:35:28;3.80;;;1.70;;
5225;SDS011;2632;51.666;7.146;2023-09-18T09:38:07;4.20;;;1.90;;
5225;SDS011;2632;51.666;7.146;2023-09-18T09:40:38;4.40;;;2.00;;
5225;SDS011;2632;51.666;7.146;2023-09-18T09:43:07;9.70;;;1.87;;
5225;SDS011;2632;51.666;7.146;2023-09-18T09:45:35;3.10;;;1.73;;
5225;SDS011;2632;51.666;7.146;2023-09-18T09:48:03;4.20;;;1.80;;
5225;SDS011;2632;51.666;7.146;2023-09-18T09:50:33;4.27;;;1.87;;
5225;SDS011;2632;51.666;7.146;2023-09-18T09:53:10;6.10;;;2.10;;
5225;SDS011;2632;51.666;7.146;2023-09-18T09:55:37;4.87;;;2.50;;
5225;SDS011;2632;51.666;7.146;2023-09-18T09:58:05;5.30;;;1.80;;
5225;SDS011;2632;51.666;7.146;2023-09-18T10:00:33;3.90;;;2.33;;
5225;SDS011;2632;51.666;7.146;2023-09-18T10:03:11;5.23;;;2.00;;
5225;SDS011;2632;51.666;7.146;2023-09-18T10:05:45;4.13;;;2.03;;
5225;SDS011;2632;51.666;7.146;2023-09-18T10:08:28;2.00;;;1.80;;
5225;SDS011;2632;51.666;7.146;2023-09-18T10:11:01;2.63;;;1.50;;
5225;SDS011;2632;51.666;7.146;2023-09-18T10:13:40;3.27;;;2.00;;
5225;SDS011;2632;51.666;7.146;2023-09-18T10:16:12;4.27;;;1.77;;
5225;SDS011;2632;51.666;7.146;2023-09-18T10:22:03;2.50;;;1.40;;
5225;SDS011;2632;51.666;7.146;2023-09-18T10:24:39;4.83;;;1.97;;
5225;SDS011;2632;51.666;7.146;2023-09-18T10:27:07;2.30;;;1.73;;
5225;SDS011;2632;51.666;7.146;2023-09-18T10:29:37;2.60;;;1.20;;
5225;SDS011;2632;51.666;7.146;2023-09-18T10:32:05;5.67;;;1.90;;
5225;SDS011;2632;51.666;7.146;2023-09-18T10:34:36;2.53;;;1.30;;
5225;SDS011;2632;51.666;7.146;2023-09-18T10:37:03;2.60;;;1.40;;
5225;SDS011;2632;51.666;7.146;2023-09-18T10:39:39;1.53;;;1.30;;
5225;SDS011;2632;51.666;7.146;2023-09-18T10:42:10;1.87;;;1.13;;
5225;SDS011;2632;51.666;7.146;2023-09-18T10:44:40;4.33;;;1.23;;
5225;SDS011;2632;51.666;7.146;2023-09-18T10:47:08;7.03;;;2.40;;
5225;SDS011;2632;51.666;7.146;2023-09-18T10:49:36;3.73;;;1.40;;
5225;SDS011;2632;51.666;7.146;2023-09-18T10:52:03;7.53;;;2.27;;
5225;SDS011;2632;51.666;7.146;2023-09-18T10:54:31;1.50;;;1.27;;
5225;SDS011;2632;51.666;7.146;2023-09-18T10:56:58;8.40;;;4.20;;
5225;SDS011;2632;51.666;7.146;2023-09-18T10:59:24;4.60;;;3.23;;
5225;SDS011;2632;51.666;7.146;2023-09-18T11:01:53;30.37;;;12.83;;
5225;SDS011;2632;51.666;7.146;2023-09-18T11:04:20;34.47;;;12.93;;
5225;SDS011;2632;51.666;7.146;2023-09-18T11:07:00;9.03;;;3.33;;
5225;SDS011;2632;51.666;7.146;2023-09-18T11:09:30;7.83;;;3.63;;
5225;SDS011;2632;51.666;7.146;2023-09-18T11:12:03;7.90;;;3.03;;
5225;SDS011;2632;51.666;7.146;2023-09-18T11:14:41;7.00;;;2.30;;
5225;SDS011;2632;51.666;7.146;2023-09-18T11:17:29;5.83;;;3.20;;
5225;SDS011;2632;51.666;7.146;2023-09-18T11:20:01;8.93;;;2.43;;
5225;SDS011;2632;51.666;7.146;2023-09-18T11:25:42;10.37;;;4.30;;
5225;SDS011;2632;51.666;7.146;2023-09-18T11:28:15;3.03;;;2.30;;
5225;SDS011;2632;51.666;7.146;2023-09-18T11:30:49;3.50;;;1.77;;
5225;SDS011;2632;51.666;7.146;2023-09-18T11:33:30;3.13;;;1.53;;
5225;SDS011;2632;51.666;7.146;2023-09-18T11:36:02;3.17;;;1.73;;
5225;SDS011;2632;51.666;7.146;2023-09-18T11:38:54;3.33;;;1.40;;
5225;SDS011;2632;51.666;7.146;2023-09-18T11:41:26;5.33;;;1.90;;
5225;SDS011;2632;51.666;7.146;2023-09-18T11:46:46;2.50;;;1.80;;
5225;SDS011;2632;51.666;7.146;2023-09-18T11:49:21;3.83;;;1.93;;
5225;SDS011;2632;51.666;7.146;2023-09-18T11:51:49;4.47;;;1.73;;
5225;SDS011;2632;51.666;7.146;2023-09-18T11:54:17;3.97;;;1.70;;
5225;SDS011;2632;51.666;7.146;2023-09-18T11:56:44;2.17;;;1.73;;
5225;SDS011;2632;51.666;7.146;2023-09-18T11:59:11;4.83;;;1.77;;
5225;SDS011;2632;51.666;7.146;2023-09-18T12:01:39;5.03;;;1.90;;
5225;SDS011;2632;51.666;7.146;2023-09-18T12:04:06;3.57;;;1.60;;
5225;SDS011;2632;51.666;7.146;2023-09-18T12:06:41;4.20;;;1.67;;
5225;SDS011;2632;51.666;7.146;2023-09-18T12:09:08;5.80;;;1.80;;
5225;SDS011;2632;51.666;7.146;2023-09-18T12:11:35;2.03;;;1.83;;
5225;SDS011;2632;51.666;7.146;2023-09-18T12:14:05;5.43;;;2.30;;
5225;SDS011;2632;51.666;7.146;2023-09-18T12:16:38;3.07;;;1.90;;
5225;SDS011;2632;51.666;7.146;2023-09-18T12:19:06;1.83;;;1.67;;
5225;SDS011;2632;51.666;7.146;2023-09-18T12:21:45;5.70;;;1.83;;
5225;SDS011;2632;51.666;7.146;2023-09-18T12:24:14;3.10;;;1.70;;
5225;SDS011;2632;51.666;7.146;2023-09-18T12:26:41;4.33;;;2.07;;
5225;SDS011;2632;51.666;7.146;2023-09-18T12:29:09;3.20;;;1.90;;
5225;SDS011;2632;51.666;7.146;2023-09-18T12:31:37;5.87;;;2.20;;
5225;SDS011;2632;51.666;7.146;2023-09-18T12:34:04;8.73;;;2.30;;
5225;SDS011;2632;51.666;7.146;2023-09-18T12:36:41;4.70;;;2.40;;
5225;SDS011;2632;51.666;7.146;2023-09-18T12:39:09;3.87;;;1.93;;
5225;SDS011;2632;51.666;7.146;2023-09-18T12:41:36;4.80;;;1.97;;
5225;SDS011;2632;51.666;7.146;2023-09-18T12:44:05;3.23;;;2.23;;
5225;SDS011;2632;51.666;7.146;2023-09-18T12:46:32;7.93;;;2.30;;
5225;SDS011;2632;51.666;7.146;2023-09-18T12:49:14;4.03;;;2.20;;
5225;SDS011;2632;51.666;7.146;2023-09-18T12:51:43;2.63;;;2.30;;
5225;SDS011;2632;51.666;7.146;2023-09-18T12:54:13;2.77;;;2.07;;
5225;SDS011;2632;51.666;7.146;2023-09-18T12:56:42;2.57;;;2.10;;
5225;SDS011;2632;51.666;7.146;2023-09-18T12:59:09;8.20;;;2.50;;
5225;SDS011;2632;51.666;7.146;2023-09-18T13:01:45;5.60;;;2.20;;
5225;SDS011;2632;51.666;7.146;2023-09-18T13:04:13;3.60;;;2.37;;
5225;SDS011;2632;51.666;7.146;2023-09-18T13:06:40;2.27;;;2.00;;
5225;SDS011;2632;51.666;7.146;2023-09-18T13:09:17;2.60;;;1.83;;
5225;SDS011;2632;51.666;7.146;2023-09-18T13:11:52;3.57;;;1.70;;
5225;SDS011;2632;51.666;7.146;2023-09-18T13:14:20;4.30;;;2.10;;
5225;SDS011;2632;51.666;7.146;2023-09-18T13:16:47;5.27;;;2.40;;
5225;SDS011;2632;51.666;7.146;2023-09-18T13:19:14;9.60;;;2.07;;
5225;SDS011;2632;51.666;7.146;2023-09-18T13:24:26;3.77;;;2.10;;
5225;SDS011;2632;51.666;7.146;2023-09-18T13:26:57;5.67;;;1.93;;
5225;SDS011;2632;51.666;7.146;2023-09-18T13:29:25;3.90;;;1.70;;
5225;SDS011;2632;51.666;7.146;2023-09-18T13:31:52;2.20;;;1.73;;
5225;SDS011;2632;51.666;7.146;2023-09-18T13:34:19;3.87;;;1.60;;
5225;SDS011;2632;51.666;7.146;2023-09-18T13:36:47;9.43;;;2.37;;
5225;SDS011;2632;51.666;7.146;2023-09-18T13:39:14;2.80;;;2.10;;
5225;SDS011;2632;51.666;7.146;2023-09-18T13:41:44;3.53;;;1.50;;
5225;SDS011;2632;51.666;7.146;2023-09-18T13:44:13;2.97;;;1.53;;
5225;SDS011;2632;51.666;7.146;2023-09-18T13:46:40;5.07;;;1.83;;
5225;SDS011;2632;51.666;7.146;2023-09-18T13:49:07;3.23;;;1.80;;
5225;SDS011;2632;51.666;7.146;2023-09-18T13:51:34;5.10;;;2.20;;
5225;SDS011;2632;51.666;7.146;2023-09-18T13:54:00;2.10;;;1.60;;
5225;SDS011;2632;51.666;7.146;2023-09-18T13:56:30;2.60;;;1.73;;
5225;SDS011;2632;51.666;7.146;2023-09-18T13:58:57;4.90;;;1.77;;
5225;SDS011;2632;51.666;7.146;2023-09-18T14:01:24;2.67;;;2.13;;
5225;SDS011;2632;51.666;7.146;2023-09-18T14:03:54;1.93;;;1.50;;
5225;SDS011;2632;51.666;7.146;2023-09-18T14:06:21;2.13;;;1.50;;
5225;SDS011;2632;51.666;7.146;2023-09-18T14:08:49;3.43;;;1.70;;
5225;SDS011;2632;51.666;7.146;2023-09-18T14:11:16;6.30;;;1.73;;
5225;SDS011;2632;51.666;7.146;2023-09-18T14:13:44;4.17;;;1.80;;
5225;SDS011;2632;51.666;7.146;2023-09-18T14:16:15;5.30;;;1.67;;
5225;SDS011;2632;51.666;7.146;2023-09-18T14:18:42;3.20;;;1.70;;
5225;SDS011;2632;51.666;7.146;2023-09-18T14:21:09;3.30;;;1.80;;
5225;SDS011;2632;51.666;7.146;2023-09-18T14:23:38;4.17;;;1.90;;
5225;SDS011;2632;51.666;7.146;2023-09-18T14:26:06;5.73;;;1.90;;
5225;SDS011;2632;51.666;7.146;2023-09-18T14:28:35;1.80;;;1.53;;
5225;SDS011;2632;51.666;7.146;2023-09-18T14:31:02;2.30;;;1.70;;
5225;SDS011;2632;51.666;7.146;2023-09-18T14:33:29;4.10;;;1.77;;
5225;SDS011;2632;51.666;7.146;2023-09-18T14:35:57;5.33;;;2.00;;
5225;SDS011;2632;51.666;7.146;2023-09-18T14:38:23;3.93;;;2.10;;
5225;SDS011;2632;51.666;7.146;2023-09-18T14:40:50;2.50;;;1.80;;
5225;SDS011;2632;51.666;7.146;2023-09-18T14:43:17;5.00;;;1.47;;
5225;SDS011;2632;51.666;7.146;2023-09-18T14:45:44;3.70;;;1.80;;
5225;SDS011;2632;51.666;7.146;2023-09-18T14:48:11;3.07;;;1.60;;
5225;SDS011;2632;51.666;7.146;2023-09-18T14:50:41;2.83;;;1.80;;
5225;SDS011;2632;51.666;7.146;2023-09-18T14:53:08;2.43;;;1.70;;
5225;SDS011;2632;51.666;7.146;2023-09-18T14:55:35;1.87;;;1.60;;
5225;SDS011;2632;51.666;7.146;2023-09-18T14:58:01;2.83;;;1.60;;
5225;SDS011;2632;51.666;7.146;2023-09-18T15:00:28;1.80;;;1.60;;
5225;SDS011;2632;51.666;7.146;2023-09-18T15:02:55;3.60;;;1.60;;
5225;SDS011;2632;51.666;7.146;2023-09-18T15:05:24;2.93;;;1.40;;
5225;SDS011;2632;51.666;7.146;2023-09-18T15:07:51;6.50;;;1.80;;
5225;SDS011;2632;51.666;7.146;2023-09-18T15:10:19;2.27;;;1.50;;
5225;SDS011;2632;51.666;7.146;2023-09-18T15:12:46;2.33;;;1.50;;
5225;SDS011;2632;51.666;7.146;2023-09-18T15:15:13;2.23;;;1.70;;
5225;SDS011;2632;51.666;7.146;2023-09-18T15:17:40;2.87;;;1.53;;
5225;SDS011;2632;51.666;7.146;2023-09-18T15:20:07;2.17;;;1.40;;
5225;SDS011;2632;51.666;7.146;2023-09-18T15:22:34;2.80;;;1.50;;
5225;SDS011;2632;51.666;7.146;2023-09-18T15:25:01;3.30;;;1.70;;
5225;SDS011;2632;51.666;7.146;2023-09-18T15:27:28;3.37;;;1.53;;
5225;SDS011;2632;51.666;7.146;2023-09-18T15:29:54;1.70;;;1.33;;
5225;SDS011;2632;51.666;7.146;2023-09-18T15:32:21;2.47;;;1.53;;
5225;SDS011;2632;51.666;7.146;2023-09-18T15:34:48;3.13;;;1.67;;